sensor_id;sensor_type;location;lat;lon;timestamp;pressure;altitude;pressure_sealevel;temperature;humidity
48200;BME280;33990;44.602;10.976;2023-03-14T00:02:17;100425.19;;;21.14;49.12
48200;BME280;33990;44.602;10.976;2023-03-14T00:04:44;100412.72;;;21.13;48.97
48200;BME280;33990;44.602;10.976;2023-03-14T00:07:12;100398.44;;;21.13;48.98
48200;BME280;33990;44.602;10.976;2023-03-14T00:09:40;100399.28;;;21.13;48.97
48200;BME280;33990;44.602;10.976;2023-03-14T00:12:08;100397.59;;;21.12;48.92
48200;BME280;33990;44.602;10.976;2023-03-14T00:14:35;100387.66;;;21.13;48.89
48200;BME280;33990;44.602;10.976;2023-03-14T00:17:02;100373.34;;;21.12;48.92
48200;BME280;33990;44.602;10.976;2023-03-14T00:19:30;100368.97;;;21.11;49.04
48200;BME280;33990;44.602;10.976;2023-03-14T00:21:57;100360.91;;;21.11;48.91
48200;BME280;33990;44.602;10.976;2023-03-14T00:24:24;100360.06;;;21.11;48.81
48200;BME280;33990;44.602;10.976;2023-03-14T00:26:52;100364.44;;;21.12;48.80
48200;BME280;33990;44.602;10.976;2023-03-14T00:29:19;100351.13;;;21.10;48.62
48200;BME280;33990;44.602;10.976;2023-03-14T00:31:46;100347.44;;;21.11;48.74
48200;BME280;33990;44.602;10.976;2023-03-14T00:34:14;100334.00;;;21.11;48.66
48200;BME280;33990;44.602;10.976;2023-03-14T00:36:41;100328.75;;;21.10;48.56
48200;BME280;33990;44.602;10.976;2023-03-14T00:39:08;100303.69;;;21.09;48.55
48200;BME280;33990;44.602;10.976;2023-03-14T00:41:35;100285.84;;;21.08;48.60
48200;BME280;33990;44.602;10.976;2023-03-14T00:44:03;100285.69;;;21.10;48.68
48200;BME280;33990;44.602;10.976;2023-03-14T00:46:30;100273.22;;;21.09;48.54
48200;BME280;33990;44.602;10.976;2023-03-14T00:48:58;100257.94;;;21.09;48.58
48200;BME280;33990;44.602;10.976;2023-03-14T00:51:25;100261.63;;;21.08;48.44
48200;BME280;33990;44.602;10.976;2023-03-14T00:53:52;100261.63;;;21.08;48.55
48200;BME280;33990;44.602;10.976;2023-03-14T00:56:20;100258.09;;;21.08;48.62
48200;BME280;33990;44.602;10.976;2023-03-14T00:58:47;100253.56;;;21.08;48.45
48200;BME280;33990;44.602;10.976;2023-03-14T01:01:17;100260.78;;;21.08;48.61
48200;BME280;33990;44.602;10.976;2023-03-14T01:03:45;100244.63;;;21.08;48.64
48200;BME280;33990;44.602;10.976;2023-03-14T01:06:17;100226.81;;;21.07;48.55
48200;BME280;33990;44.602;10.976;2023-03-14T01:08:45;100213.34;;;21.07;48.59
48200;BME280;33990;44.602;10.976;2023-03-14T01:11:16;100193.66;;;21.06;48.60
48200;BME280;33990;44.602;10.976;2023-03-14T01:13:44;100182.03;;;21.06;48.69
48200;BME280;33990;44.602;10.976;2023-03-14T01:16:13;100176.66;;;21.06;48.69
48200;BME280;33990;44.602;10.976;2023-03-14T01:18:42;100161.34;;;21.06;48.46
48200;BME280;33990;44.602;10.976;2023-03-14T01:21:17;100153.44;;;21.05;48.55
48200;BME280;33990;44.602;10.976;2023-03-14T01:23:45;100150.75;;;21.05;48.51
48200;BME280;33990;44.602;10.976;2023-03-14T01:26:16;100151.59;;;21.05;48.64
48200;BME280;33990;44.602;10.976;2023-03-14T01:28:47;100126.53;;;21.05;48.41
48200;BME280;33990;44.602;10.976;2023-03-14T01:31:15;100125.69;;;21.04;48.59
48200;BME280;33990;44.602;10.976;2023-03-14T01:33:43;100129.22;;;21.05;48.47
48200;BME280;33990;44.602;10.976;2023-03-14T01:36:11;100126.53;;;21.05;48.47
48200;BME280;33990;44.602;10.976;2023-03-14T01:38:39;100120.31;;;21.04;48.47
48200;BME280;33990;44.602;10.976;2023-03-14T01:41:15;100126.53;;;21.05;48.46
48200;BME280;33990;44.602;10.976;2023-03-14T01:43:44;100127.38;;;21.05;48.65
48200;BME280;33990;44.602;10.976;2023-03-14T01:46:32;100125.69;;;21.04;48.51
48200;BME280;33990;44.602;10.976;2023-03-14T01:57:06;100122.00;;;21.05;48.68
48200;BME280;33990;44.602;10.976;2023-03-14T01:59:37;100109.53;;;21.04;48.54
48200;BME280;33990;44.602;10.976;2023-03-14T02:02:06;100097.94;;;21.04;48.56
48200;BME280;33990;44.602;10.976;2023-03-14T02:04:38;100105.00;;;21.05;48.52
48200;BME280;33990;44.602;10.976;2023-03-14T02:07:20;100094.41;;;21.03;48.50
48200;BME280;33990;44.602;10.976;2023-03-14T02:10:01;100102.47;;;21.03;48.52
48200;BME280;33990;44.602;10.976;2023-03-14T02:12:32;100083.78;;;21.02;48.52
48200;BME280;33990;44.602;10.976;2023-03-14T02:15:38;100074.75;;;21.03;48.53
48200;BME280;33990;44.602;10.976;2023-03-14T02:18:19;100069.34;;;21.03;48.64
48200;BME280;33990;44.602;10.976;2023-03-14T02:21:11;100062.25;;;21.02;48.60
48200;BME280;33990;44.602;10.976;2023-03-14T02:26:37;100048.81;;;21.02;48.53
48200;BME280;33990;44.602;10.976;2023-03-14T02:29:05;100060.59;;;21.01;48.39
48200;BME280;33990;44.602;10.976;2023-03-14T02:31:33;100049.81;;;21.01;48.62
48200;BME280;33990;44.602;10.976;2023-03-14T02:34:01;100044.44;;;21.01;48.45
48200;BME280;33990;44.602;10.976;2023-03-14T02:36:30;100055.19;;;21.01;48.51
48200;BME280;33990;44.602;10.976;2023-03-14T02:39:06;100051.66;;;21.00;48.39
48200;BME280;33990;44.602;10.976;2023-03-14T02:41:39;100069.66;;;20.99;48.53
48200;BME280;33990;44.602;10.976;2023-03-14T02:44:07;100059.75;;;21.00;48.53
48200;BME280;33990;44.602;10.976;2023-03-14T02:46:34;100055.38;;;20.99;48.47
48200;BME280;33990;44.602;10.976;2023-03-14T02:49:04;100056.22;;;20.99;48.66
48200;BME280;33990;44.602;10.976;2023-03-14T02:51:35;100071.53;;;20.99;48.57
48200;BME280;33990;44.602;10.976;2023-03-14T02:54:03;100077.75;;;20.99;48.56
48200;BME280;33990;44.602;10.976;2023-03-14T02:56:31;100084.97;;;20.99;48.53
48200;BME280;33990;44.602;10.976;2023-03-14T02:59:05;100097.59;;;20.98;48.46
48200;BME280;33990;44.602;10.976;2023-03-14T03:01:38;100084.97;;;20.99;48.46
48200;BME280;33990;44.602;10.976;2023-03-14T03:04:07;100077.88;;;20.98;48.61
48200;BME280;33990;44.602;10.976;2023-03-14T03:06:35;100079.59;;;20.99;48.53
48200;BME280;33990;44.602;10.976;2023-03-14T03:09:02;100067.13;;;20.98;48.41
48200;BME280;33990;44.602;10.976;2023-03-14T03:11:29;100056.34;;;20.98;48.57
48200;BME280;33990;44.602;10.976;2023-03-14T03:13:58;100034.81;;;20.98;48.61
48200;BME280;33990;44.602;10.976;2023-03-14T03:16:27;100040.22;;;20.98;48.52
48200;BME280;33990;44.602;10.976;2023-03-14T03:18:55;100022.25;;;20.98;48.59
48200;BME280;33990;44.602;10.976;2023-03-14T03:21:22;100029.44;;;20.98;48.53
48200;BME280;33990;44.602;10.976;2023-03-14T03:23:50;100004.25;;;20.99;48.52
48200;BME280;33990;44.602;10.976;2023-03-14T03:26:17;99999.00;;;20.97;48.48
48200;BME280;33990;44.602;10.976;2023-03-14T03:28:45;100009.78;;;20.97;48.42
48200;BME280;33990;44.602;10.976;2023-03-14T03:31:14;99991.78;;;20.98;48.54
48200;BME280;33990;44.602;10.976;2023-03-14T03:33:42;99989.09;;;20.98;48.39
48200;BME280;33990;44.602;10.976;2023-03-14T03:36:10;99990.09;;;20.97;48.56
48200;BME280;33990;44.602;10.976;2023-03-14T03:38:39;99976.66;;;20.97;48.49
48200;BME280;33990;44.602;10.976;2023-03-14T03:41:07;99995.47;;;20.97;48.52
48200;BME280;33990;44.602;10.976;2023-03-14T03:43:35;99972.09;;;20.97;48.63
48200;BME280;33990;44.602;10.976;2023-03-14T03:46:05;99988.25;;;20.97;48.41
48200;BME280;33990;44.602;10.976;2023-03-14T03:48:34;100006.25;;;20.97;48.52
48200;BME280;33990;44.602;10.976;2023-03-14T03:51:04;100001.69;;;20.97;48.43
48200;BME280;33990;44.602;10.976;2023-03-14T03:53:33;100007.91;;;20.98;48.52
48200;BME280;33990;44.602;10.976;2023-03-14T03:56:12;100011.63;;;20.97;48.51
48200;BME280;33990;44.602;10.976;2023-03-14T03:58:41;100000.03;;;20.96;48.66
48200;BME280;33990;44.602;10.976;2023-03-14T04:01:09;99981.19;;;20.96;48.68
48200;BME280;33990;44.602;10.976;2023-03-14T04:03:38;99980.19;;;20.97;48.54
48200;BME280;33990;44.602;10.976;2023-03-14T04:06:11;99967.72;;;20.96;48.71
48200;BME280;33990;44.602;10.976;2023-03-14T04:08:42;99965.88;;;20.97;48.63
48200;BME280;33990;44.602;10.976;2023-03-14T04:11:20;99947.06;;;20.97;48.65
48200;BME280;33990;44.602;10.976;2023-03-14T04:14:13;99940.00;;;20.96;48.75
48200;BME280;33990;44.602;10.976;2023-03-14T04:16:41;99926.53;;;20.96;48.72
48200;BME280;33990;44.602;10.976;2023-03-14T04:19:12;99901.47;;;20.95;48.63
48200;BME280;33990;44.602;10.976;2023-03-14T04:21:40;99874.56;;;20.95;48.74
48200;BME280;33990;44.602;10.976;2023-03-14T04:24:12;99847.66;;;20.95;48.53
48200;BME280;33990;44.602;10.976;2023-03-14T04:26:42;99811.03;;;20.94;48.66
48200;BME280;33990;44.602;10.976;2023-03-14T04:29:10;99785.94;;;20.94;48.58
48200;BME280;33990;44.602;10.976;2023-03-14T04:31:40;99815.53;;;20.94;48.72
48200;BME280;33990;44.602;10.976;2023-03-14T04:34:08;99817.38;;;20.93;48.78
48200;BME280;33990;44.602;10.976;2023-03-14T04:36:40;99820.91;;;20.94;48.75
48200;BME280;33990;44.602;10.976;2023-03-14T04:39:13;99839.75;;;20.94;48.90
48200;BME280;33990;44.602;10.976;2023-03-14T04:41:50;99847.81;;;20.94;48.93
48200;BME280;33990;44.602;10.976;2023-03-14T04:44:18;99854.06;;;20.94;48.91
48200;BME280;33990;44.602;10.976;2023-03-14T04:46:49;99831.69;;;20.94;48.79
48200;BME280;33990;44.602;10.976;2023-03-14T04:49:16;99810.16;;;20.94;48.84
48200;BME280;33990;44.602;10.976;2023-03-14T04:51:44;99828.16;;;20.93;48.75
48200;BME280;33990;44.602;10.976;2023-03-14T04:54:11;99816.53;;;20.93;48.78
48200;BME280;33990;44.602;10.976;2023-03-14T04:56:39;99822.75;;;20.93;48.82
48200;BME280;33990;44.602;10.976;2023-03-14T04:59:07;99813.84;;;20.93;48.80
48200;BME280;33990;44.602;10.976;2023-03-14T05:01:36;99842.63;;;20.92;48.83
48200;BME280;33990;44.602;10.976;2023-03-14T05:04:20;99827.31;;;20.93;48.88
48200;BME280;33990;44.602;10.976;2023-03-14T05:06:56;99825.63;;;20.92;48.90
48200;BME280;33990;44.602;10.976;2023-03-14T05:09:48;99819.41;;;20.91;48.80
48200;BME280;33990;44.602;10.976;2023-03-14T05:12:51;99793.34;;;20.92;48.88
48200;BME280;33990;44.602;10.976;2023-03-14T05:15:38;99777.22;;;20.92;48.86
48200;BME280;33990;44.602;10.976;2023-03-14T05:18:23;99752.16;;;20.91;48.91
48200;BME280;33990;44.602;10.976;2023-03-14T05:21:17;99721.53;;;20.92;48.84
48200;BME280;33990;44.602;10.976;2023-03-14T05:24:04;99693.81;;;20.92;48.84
48200;BME280;33990;44.602;10.976;2023-03-14T05:26:50;99695.66;;;20.91;48.74
48200;BME280;33990;44.602;10.976;2023-03-14T05:29:35;99687.59;;;20.91;48.84
48200;BME280;33990;44.602;10.976;2023-03-14T05:32:38;99657.16;;;20.91;48.86
48200;BME280;33990;44.602;10.976;2023-03-14T05:35:23;99645.56;;;20.90;48.79
48200;BME280;33990;44.602;10.976;2023-03-14T05:38:18;99664.41;;;20.90;48.67
48200;BME280;33990;44.602;10.976;2023-03-14T05:40:59;99705.59;;;20.91;48.83
48200;BME280;33990;44.602;10.976;2023-03-14T05:43:45;99739.72;;;20.90;48.71
48200;BME280;33990;44.602;10.976;2023-03-14T05:46:27;99748.63;;;20.91;48.68
48200;BME280;33990;44.602;10.976;2023-03-14T05:49:34;99769.31;;;20.90;48.59
48200;BME280;33990;44.602;10.976;2023-03-14T05:52:17;99770.16;;;20.91;48.79
48200;BME280;33990;44.602;10.976;2023-03-14T05:54:53;99792.66;;;20.90;48.66
48200;BME280;33990;44.602;10.976;2023-03-14T05:57:46;99769.31;;;20.90;48.83
48200;BME280;33990;44.602;10.976;2023-03-14T06:00:39;99761.38;;;20.89;48.57
48200;BME280;33990;44.602;10.976;2023-03-14T06:03:19;99766.78;;;20.89;48.72
48200;BME280;33990;44.602;10.976;2023-03-14T06:05:50;99798.22;;;20.88;48.65
48200;BME280;33990;44.602;10.976;2023-03-14T06:08:20;99837.56;;;20.89;48.74
48200;BME280;33990;44.602;10.976;2023-03-14T06:10:47;99846.66;;;20.88;48.46
48200;BME280;33990;44.602;10.976;2023-03-14T06:13:14;99842.94;;;20.89;48.70
48200;BME280;33990;44.602;10.976;2023-03-14T06:15:43;99802.75;;;20.88;48.62
48200;BME280;33990;44.602;10.976;2023-03-14T06:18:11;99808.13;;;20.88;48.76
48200;BME280;33990;44.602;10.976;2023-03-14T06:20:39;99818.91;;;20.88;48.72
48200;BME280;33990;44.602;10.976;2023-03-14T06:23:10;99828.00;;;20.87;48.65
48200;BME280;33990;44.602;10.976;2023-03-14T06:25:37;99813.53;;;20.88;48.57
48200;BME280;33990;44.602;10.976;2023-03-14T06:28:05;99812.69;;;20.87;48.82
48200;BME280;33990;44.602;10.976;2023-03-14T06:30:32;99820.75;;;20.87;48.86
48200;BME280;33990;44.602;10.976;2023-03-14T06:33:00;99811.84;;;20.87;48.87
48200;BME280;33990;44.602;10.976;2023-03-14T06:35:28;99817.22;;;20.87;48.97
48200;BME280;33990;44.602;10.976;2023-03-14T06:37:56;99812.69;;;20.87;48.78
48200;BME280;33990;44.602;10.976;2023-03-14T06:40:23;99822.59;;;20.87;48.99
48200;BME280;33990;44.602;10.976;2023-03-14T06:43:03;99806.47;;;20.87;48.97
48200;BME280;33990;44.602;10.976;2023-03-14T06:45:32;99819.91;;;20.87;48.94
48200;BME280;33990;44.602;10.976;2023-03-14T06:48:02;99827.13;;;20.86;49.05
48200;BME280;33990;44.602;10.976;2023-03-14T06:50:39;99849.50;;;20.87;48.97
48200;BME280;33990;44.602;10.976;2023-03-14T06:53:08;99863.81;;;20.87;48.92
48200;BME280;33990;44.602;10.976;2023-03-14T06:55:38;99865.66;;;20.87;48.80
48200;BME280;33990;44.602;10.976;2023-03-14T06:58:07;99841.44;;;20.87;48.90
48200;BME280;33990;44.602;10.976;2023-03-14T07:00:41;99818.06;;;20.87;48.85
48200;BME280;33990;44.602;10.976;2023-03-14T07:03:10;99867.31;;;20.88;48.88
48200;BME280;33990;44.602;10.976;2023-03-14T07:05:41;99851.19;;;20.88;48.95
48200;BME280;33990;44.602;10.976;2023-03-14T07:08:09;99845.81;;;20.88;48.89
48200;BME280;33990;44.602;10.976;2023-03-14T07:10:36;99846.81;;;20.87;49.07
48200;BME280;33990;44.602;10.976;2023-03-14T07:13:06;99842.44;;;20.86;49.11
48200;BME280;33990;44.602;10.976;2023-03-14T07:15:39;99873.72;;;20.87;49.04
48200;BME280;33990;44.602;10.976;2023-03-14T07:18:09;99878.22;;;20.86;49.08
48200;BME280;33990;44.602;10.976;2023-03-14T07:20:36;99854.03;;;20.86;49.07
48200;BME280;33990;44.602;10.976;2023-03-14T07:23:04;99847.66;;;20.87;49.14
48200;BME280;33990;44.602;10.976;2023-03-14T07:25:39;99857.59;;;20.87;49.30
48200;BME280;33990;44.602;10.976;2023-03-14T07:28:06;99849.50;;;20.87;49.10
48200;BME280;33990;44.602;10.976;2023-03-14T07:30:35;99821.59;;;20.88;49.28
48200;BME280;33990;44.602;10.976;2023-03-14T07:33:10;99814.53;;;20.87;49.37
48200;BME280;33990;44.602;10.976;2023-03-14T07:35:38;99825.31;;;20.87;49.27
48200;BME280;33990;44.602;10.976;2023-03-14T07:38:05;99847.66;;;20.87;49.19
48200;BME280;33990;44.602;10.976;2023-03-14T07:40:38;99798.41;;;20.87;47.37
48200;BME280;33990;44.602;10.976;2023-03-14T07:43:06;99811.84;;;20.87;48.28
48200;BME280;33990;44.602;10.976;2023-03-14T07:45:47;99837.88;;;20.86;49.05
48200;BME280;33990;44.602;10.976;2023-03-14T07:48:17;99828.97;;;20.86;49.01
48200;BME280;33990;44.602;10.976;2023-03-14T07:50:48;99837.03;;;20.86;49.09
48200;BME280;33990;44.602;10.976;2023-03-14T07:53:16;99844.13;;;20.87;49.13
48200;BME280;33990;44.602;10.976;2023-03-14T07:55:43;99837.88;;;20.86;49.06
48200;BME280;33990;44.602;10.976;2023-03-14T07:58:11;99818.06;;;20.87;49.22
48200;BME280;33990;44.602;10.976;2023-03-14T08:00:38;99810.00;;;20.87;49.18
48200;BME280;33990;44.602;10.976;2023-03-14T08:03:06;99812.69;;;20.87;49.09
48200;BME280;33990;44.602;10.976;2023-03-14T08:05:37;99822.41;;;20.80;47.24
48200;BME280;33990;44.602;10.976;2023-03-14T08:08:05;99814.00;;;20.67;47.96
48200;BME280;33990;44.602;10.976;2023-03-14T08:10:33;99814.81;;;20.59;48.32
48200;BME280;33990;44.602;10.976;2023-03-14T08:13:00;99803.03;;;20.52;48.16
48200;BME280;33990;44.602;10.976;2023-03-14T08:15:29;99801.13;;;20.44;48.37
48200;BME280;33990;44.602;10.976;2023-03-14T08:17:57;99795.91;;;20.35;47.97
48200;BME280;33990;44.602;10.976;2023-03-14T08:20:27;99797.72;;;20.26;48.49
48200;BME280;33990;44.602;10.976;2023-03-14T08:22:58;99793.84;;;20.20;48.72
48200;BME280;33990;44.602;10.976;2023-03-14T08:25:28;99808.59;;;20.16;48.95
48200;BME280;33990;44.602;10.976;2023-03-14T08:27:55;99812.28;;;20.15;49.05
48200;BME280;33990;44.602;10.976;2023-03-14T08:30:23;99803.06;;;20.10;48.97
48200;BME280;33990;44.602;10.976;2023-03-14T08:32:51;99792.94;;;20.04;49.18
48200;BME280;33990;44.602;10.976;2023-03-14T08:35:19;99773.91;;;19.97;49.53
48200;BME280;33990;44.602;10.976;2023-03-14T08:37:46;99774.41;;;19.92;49.20
48200;BME280;33990;44.602;10.976;2023-03-14T08:40:14;99772.06;;;19.89;49.61
48200;BME280;33990;44.602;10.976;2023-03-14T08:42:42;99769.88;;;19.93;49.64
48200;BME280;33990;44.602;10.976;2023-03-14T08:45:12;99759.66;;;19.96;49.41
48200;BME280;33990;44.602;10.976;2023-03-14T08:47:39;99771.09;;;19.98;49.25
48200;BME280;33990;44.602;10.976;2023-03-14T08:50:08;99776.16;;;20.02;49.30
48200;BME280;33990;44.602;10.976;2023-03-14T08:52:36;99775.81;;;20.05;49.30
48200;BME280;33990;44.602;10.976;2023-03-14T08:55:05;99769.94;;;20.09;49.11
48200;BME280;33990;44.602;10.976;2023-03-14T08:57:33;99759.38;;;20.08;49.42
48200;BME280;33990;44.602;10.976;2023-03-14T09:00:00;99766.59;;;20.07;49.49
48200;BME280;33990;44.602;10.976;2023-03-14T09:02:27;99764.56;;;20.09;49.71
48200;BME280;33990;44.602;10.976;2023-03-14T09:04:55;99780.38;;;20.12;49.53
48200;BME280;33990;44.602;10.976;2023-03-14T09:07:22;99773.00;;;20.14;49.83
48200;BME280;33990;44.602;10.976;2023-03-14T09:09:50;99773.66;;;20.16;50.08
48200;BME280;33990;44.602;10.976;2023-03-14T09:12:17;99777.03;;;20.18;49.93
48200;BME280;33990;44.602;10.976;2023-03-14T09:14:44;99776.03;;;20.19;50.02
48200;BME280;33990;44.602;10.976;2023-03-14T09:17:11;99774.34;;;20.18;49.84
48200;BME280;33990;44.602;10.976;2023-03-14T09:19:39;99785.28;;;20.25;49.62
48200;BME280;33990;44.602;10.976;2023-03-14T09:22:06;99778.44;;;20.31;49.63
48200;BME280;33990;44.602;10.976;2023-03-14T09:24:33;99773.38;;;20.36;49.74
48200;BME280;33990;44.602;10.976;2023-03-14T09:27:01;99759.31;;;20.42;49.57
48200;BME280;33990;44.602;10.976;2023-03-14T09:29:28;99762.47;;;20.45;49.41
48200;BME280;33990;44.602;10.976;2023-03-14T09:31:57;99768.25;;;20.51;49.46
48200;BME280;33990;44.602;10.976;2023-03-14T09:34:26;99763.41;;;20.54;49.56
48200;BME280;33990;44.602;10.976;2023-03-14T09:36:53;99756.81;;;20.57;49.32
48200;BME280;33990;44.602;10.976;2023-03-14T09:39:20;99754.81;;;20.59;49.25
48200;BME280;33990;44.602;10.976;2023-03-14T09:41:51;99760.88;;;20.61;49.25
48200;BME280;33990;44.602;10.976;2023-03-14T09:44:27;99753.50;;;20.63;49.21
48200;BME280;33990;44.602;10.976;2023-03-14T09:47:00;99743.56;;;20.63;49.07
48200;BME280;33990;44.602;10.976;2023-03-14T09:49:32;99741.72;;;20.64;49.07
48200;BME280;33990;44.602;10.976;2023-03-14T09:54:54;99743.25;;;20.66;49.21
48200;BME280;33990;44.602;10.976;2023-03-14T09:57:25;99747.59;;;20.67;49.07
48200;BME280;33990;44.602;10.976;2023-03-14T10:00:01;99742.88;;;20.69;48.95
48200;BME280;33990;44.602;10.976;2023-03-14T10:02:35;99743.06;;;20.68;49.03
48200;BME280;33990;44.602;10.976;2023-03-14T10:05:07;99741.91;;;20.70;49.15
48200;BME280;33990;44.602;10.976;2023-03-14T10:07:35;99739.88;;;20.72;49.09
48200;BME280;33990;44.602;10.976;2023-03-14T10:10:10;99740.72;;;20.73;48.94
48200;BME280;33990;44.602;10.976;2023-03-14T10:12:37;99735.31;;;20.73;49.19
48200;BME280;33990;44.602;10.976;2023-03-14T10:15:12;99740.72;;;20.73;48.92
48200;BME280;33990;44.602;10.976;2023-03-14T10:17:48;99729.94;;;20.73;49.11
48200;BME280;33990;44.602;10.976;2023-03-14T10:23:02;99732.63;;;20.73;49.10
48200;BME280;33990;44.602;10.976;2023-03-14T10:25:33;99736.00;;;20.75;48.93
48200;BME280;33990;44.602;10.976;2023-03-14T10:28:02;99731.47;;;20.76;49.13
48200;BME280;33990;44.602;10.976;2023-03-14T10:33:12;99728.59;;;20.77;48.95
48200;BME280;33990;44.602;10.976;2023-03-14T10:35:51;99727.59;;;20.78;48.97
48200;BME280;33990;44.602;10.976;2023-03-14T10:38:19;99723.06;;;20.79;48.98
48200;BME280;33990;44.602;10.976;2023-03-14T10:40:48;99716.69;;;20.80;48.96
48200;BME280;33990;44.602;10.976;2023-03-14T10:43:18;99713.16;;;20.79;48.95
48200;BME280;33990;44.602;10.976;2023-03-14T10:45:55;99714.00;;;20.80;49.00
48200;BME280;33990;44.602;10.976;2023-03-14T10:53:24;99722.72;;;20.82;49.19
48200;BME280;33990;44.602;10.976;2023-03-14T10:55:55;99715.34;;;20.84;49.23
48200;BME280;33990;44.602;10.976;2023-03-14T10:58:28;99724.91;;;20.86;49.08
48200;BME280;33990;44.602;10.976;2023-03-14T11:04:22;99710.28;;;20.89;49.01
48200;BME280;33990;44.602;10.976;2023-03-14T11:09:28;99696.69;;;20.90;49.00
48200;BME280;33990;44.602;10.976;2023-03-14T11:14:54;99701.03;;;20.91;49.01
48200;BME280;33990;44.602;10.976;2023-03-14T11:17:31;99701.88;;;20.92;49.03
48200;BME280;33990;44.602;10.976;2023-03-14T11:23:01;99706.25;;;20.93;49.05
48200;BME280;33990;44.602;10.976;2023-03-14T11:28:23;99694.47;;;20.94;49.02
48200;BME280;33990;44.602;10.976;2023-03-14T11:30:54;99681.69;;;20.96;49.11
48200;BME280;33990;44.602;10.976;2023-03-14T11:34:01;99679.00;;;20.96;48.98
48200;BME280;33990;44.602;10.976;2023-03-14T11:36:39;99678.00;;;20.97;48.99
48200;BME280;33990;44.602;10.976;2023-03-14T11:39:13;99668.06;;;20.97;49.01
48200;BME280;33990;44.602;10.976;2023-03-14T11:41:47;99669.75;;;20.98;48.94
48200;BME280;33990;44.602;10.976;2023-03-14T11:44:22;99661.69;;;20.98;48.95
48200;BME280;33990;44.602;10.976;2023-03-14T11:46:57;99654.44;;;20.99;48.94
48200;BME280;33990;44.602;10.976;2023-03-14T11:52:04;99651.59;;;21.01;48.95
48200;BME280;33990;44.602;10.976;2023-03-14T11:57:24;99653.44;;;21.00;49.06
48200;BME280;33990;44.602;10.976;2023-03-14T12:02:26;99640.63;;;21.02;48.98
48200;BME280;33990;44.602;10.976;2023-03-14T12:10:46;99641.66;;;21.01;49.01
48200;BME280;33990;44.602;10.976;2023-03-14T12:13:16;99638.81;;;21.03;48.93
48200;BME280;33990;44.602;10.976;2023-03-14T12:15:55;99632.41;;;21.04;49.20
48200;BME280;33990;44.602;10.976;2023-03-14T12:18:33;99638.81;;;21.03;49.14
48200;BME280;33990;44.602;10.976;2023-03-14T12:21:03;99634.25;;;21.03;49.00
48200;BME280;33990;44.602;10.976;2023-03-14T12:23:43;99639.66;;;21.03;49.07
48200;BME280;33990;44.602;10.976;2023-03-14T12:39:40;99609.03;;;21.04;48.89
48200;BME280;33990;44.602;10.976;2023-03-14T12:45:24;99608.84;;;21.06;49.01
48200;BME280;33990;44.602;10.976;2023-03-14T12:48:18;99606.16;;;21.06;49.16
48200;BME280;33990;44.602;10.976;2023-03-14T12:51:05;99601.59;;;21.06;49.12
48200;BME280;33990;44.602;10.976;2023-03-14T12:57:13;99598.75;;;21.08;49.03
48200;BME280;33990;44.602;10.976;2023-03-14T12:59:47;99588.84;;;21.08;49.03
48200;BME280;33990;44.602;10.976;2023-03-14T13:02:37;99586.16;;;21.08;49.14
48200;BME280;33990;44.602;10.976;2023-03-14T13:05:18;99594.22;;;21.08;49.16
48200;BME280;33990;44.602;10.976;2023-03-14T13:11:06;99596.22;;;21.06;49.02
48200;BME280;33990;44.602;10.976;2023-03-14T13:13:24;99590.00;;;21.06;49.10
48200;BME280;33990;44.602;10.976;2023-03-14T13:15:59;99607.00;;;21.06;49.07
48200;BME280;33990;44.602;10.976;2023-03-14T13:18:33;99599.09;;;21.05;49.21
48200;BME280;33990;44.602;10.976;2023-03-14T13:21:11;99596.41;;;21.05;49.08
48200;BME280;33990;44.602;10.976;2023-03-14T13:23:40;99599.09;;;21.05;49.23
48200;BME280;33990;44.602;10.976;2023-03-14T13:26:14;99603.66;;;21.04;49.31
48200;BME280;33990;44.602;10.976;2023-03-14T13:28:44;99605.31;;;21.05;49.28
48200;BME280;33990;44.602;10.976;2023-03-14T13:31:21;99600.78;;;21.06;49.23
48200;BME280;33990;44.602;10.976;2023-03-14T13:34:06;99606.00;;;21.07;49.35
48200;BME280;33990;44.602;10.976;2023-03-14T13:36:35;99601.47;;;21.08;49.30
48200;BME280;33990;44.602;10.976;2023-03-14T13:39:09;99604.78;;;21.10;49.50
48200;BME280;33990;44.602;10.976;2023-03-14T13:41:40;99602.94;;;21.10;49.39
48200;BME280;33990;44.602;10.976;2023-03-14T13:44:13;99598.44;;;21.11;49.32
48200;BME280;33990;44.602;10.976;2023-03-14T13:46:42;99596.38;;;21.13;49.26
48200;BME280;33990;44.602;10.976;2023-03-14T13:49:12;99596.38;;;21.13;49.45
48200;BME280;33990;44.602;10.976;2023-03-14T13:51:44;99600.75;;;21.14;49.48
48200;BME280;33990;44.602;10.976;2023-03-14T13:54:17;99599.91;;;21.13;49.35
48200;BME280;33990;44.602;10.976;2023-03-14T13:56:46;99605.28;;;21.13;49.26
48200;BME280;33990;44.602;10.976;2023-03-14T13:59:33;99595.56;;;21.12;49.52
48200;BME280;33990;44.602;10.976;2023-03-14T14:02:11;99602.59;;;21.13;49.28
48200;BME280;33990;44.602;10.976;2023-03-14T14:04:44;99603.44;;;21.14;49.29
48200;BME280;33990;44.602;10.976;2023-03-14T14:07:15;99600.75;;;21.14;49.14
48200;BME280;33990;44.602;10.976;2023-03-14T14:09:50;99597.91;;;21.15;48.99
48200;BME280;33990;44.602;10.976;2023-03-14T14:12:37;99603.28;;;21.15;49.03
48200;BME280;33990;44.602;10.976;2023-03-14T14:15:16;99605.97;;;21.15;49.51
48200;BME280;33990;44.602;10.976;2023-03-14T14:18:07;99598.56;;;21.17;49.14
48200;BME280;33990;44.602;10.976;2023-03-14T14:20:40;99605.59;;;21.18;48.85
48200;BME280;33990;44.602;10.976;2023-03-14T14:23:13;99606.47;;;21.19;49.02
48200;BME280;33990;44.602;10.976;2023-03-14T14:25:42;99604.78;;;21.18;48.89
48200;BME280;33990;44.602;10.976;2023-03-14T14:31:20;99600.22;;;21.18;48.98
48200;BME280;33990;44.602;10.976;2023-03-14T14:33:59;99595.72;;;21.19;48.93